createdAt,value
2019-04-28T00:01:58.339Z,67.50
2019-04-28T00:04:36.656Z,61.63
2019-04-28T00:07:12.425Z,62.40
2019-04-28T00:09:51.015Z,136.85
2019-04-28T00:12:32.852Z,185.57
2019-04-28T00:15:08.475Z,108.72
2019-04-28T00:17:49.035Z,90.25
2019-04-28T00:20:28.806Z,81.37
2019-04-28T00:23:09.110Z,82.17
2019-04-28T00:25:54.262Z,79.37
2019-04-28T00:28:37.779Z,85.42
2019-04-28T00:31:14.918Z,75.90
2019-04-28T00:33:51.463Z,68.50
2019-04-28T00:36:32.135Z,71.55
2019-04-28T00:39:11.073Z,65.15
2019-04-28T00:41:48.976Z,67.17
2019-04-28T00:44:28.301Z,72.20
2019-04-28T00:47:03.855Z,79.58
2019-04-28T00:50:01.952Z,83.45
2019-04-28T00:52:38.281Z,60.35
2019-04-28T00:55:16.178Z,59.90
2019-04-28T00:57:53.087Z,45.28
2019-04-28T01:00:31.673Z,45.12
2019-04-28T01:03:11.731Z,43.08
2019-04-28T01:05:47.576Z,42.62
2019-04-28T01:08:24.655Z,41.88
2019-04-28T01:11:04.100Z,41.40
2019-04-28T01:13:42.145Z,41.00
2019-04-28T01:16:20.248Z,43.55
2019-04-28T01:19:14.023Z,45.00
2019-04-28T01:22:03.087Z,57.93
2019-04-28T01:24:39.642Z,49.70
2019-04-28T01:27:38.094Z,48.55
2019-04-28T01:30:14.710Z,49.00
2019-04-28T01:32:52.946Z,49.83
2019-04-28T01:35:34.744Z,43.40
2019-04-28T01:38:13.419Z,38.73
2019-04-28T01:40:49.935Z,113.42
2019-04-28T01:43:25.904Z,76.17
2019-04-28T01:48:43.500Z,37.17
2019-04-28T01:51:19.099Z,35.38
2019-04-28T01:54:00.079Z,35.28
2019-04-28T01:56:40.291Z,39.65
2019-04-28T01:59:17.996Z,42.62
2019-04-28T02:01:55.424Z,49.53
2019-04-28T02:04:32.594Z,53.30
2019-04-28T02:07:08.288Z,60.83
2019-04-28T02:09:49.098Z,68.45
2019-04-28T02:12:24.421Z,76.22
2019-04-28T02:15:01.040Z,78.42
2019-04-28T02:17:45.784Z,91.87
2019-04-28T02:20:24.556Z,80.05
2019-04-28T02:23:06.986Z,86.12
2019-04-28T02:25:42.287Z,87.12
2019-04-28T02:28:19.778Z,81.32
2019-04-28T02:31:02.188Z,88.05
2019-04-28T02:33:40.802Z,87.92
2019-04-28T02:36:16.934Z,93.22
2019-04-28T02:38:56.391Z,95.72
2019-04-28T02:41:44.646Z,96.78
2019-04-28T02:44:23.430Z,96.87
2019-04-28T02:47:02.314Z,103.25
2019-04-28T02:49:55.696Z,102.35
2019-04-28T02:52:33.866Z,109.35
2019-04-28T02:55:14.472Z,99.65
2019-04-28T02:57:51.903Z,95.05
2019-04-28T03:00:32.106Z,96.05
2019-04-28T03:03:07.904Z,99.35
2019-04-28T03:05:44.979Z,84.77
2019-04-28T03:08:23.757Z,77.03
2019-04-28T03:11:00.921Z,75.60
2019-04-28T03:13:40.926Z,74.15
2019-04-28T03:16:16.696Z,76.87
2019-04-28T03:21:31.054Z,64.80
2019-04-28T03:24:05.609Z,57.93
2019-04-28T03:26:44.950Z,58.80
2019-04-28T03:29:23.412Z,58.75
2019-04-28T03:32:22.866Z,60.70
2019-04-28T03:34:52.988Z,53.95
2019-04-28T03:37:31.342Z,58.42
2019-04-28T03:40:07.149Z,57.38
2019-04-28T03:42:44.196Z,57.60
2019-04-28T03:45:24.400Z,71.35
2019-04-28T03:48:00.345Z,55.48
2019-04-28T03:50:37.520Z,60.77
2019-04-28T03:53:14.865Z,64.90
2019-04-28T03:55:52.033Z,59.55
2019-04-28T03:58:32.259Z,62.60
2019-04-28T04:01:10.449Z,63.17
2019-04-28T04:03:44.765Z,60.03
2019-04-28T04:06:22.809Z,63.55
2019-04-28T04:09:06.720Z,68.40
2019-04-28T04:11:48.051Z,70.62
2019-04-28T04:14:26.179Z,65.90
2019-04-28T04:17:07.276Z,67.78
2019-04-28T04:19:44.730Z,70.97
2019-04-28T04:22:23.367Z,64.53
2019-04-28T04:25:01.131Z,64.22
2019-04-28T04:27:35.737Z,67.72
2019-04-28T04:30:15.510Z,64.42
2019-04-28T04:32:51.256Z,59.93
2019-04-28T04:35:26.909Z,64.00
2019-04-28T04:38:03.757Z,62.35
2019-04-28T04:40:41.358Z,60.90
2019-04-28T04:43:22.968Z,56.23
2019-04-28T04:45:58.553Z,54.25
2019-04-28T04:48:37.330Z,54.18
2019-04-28T04:51:17.437Z,52.65
2019-04-28T04:53:54.798Z,52.30
2019-04-28T04:56:31.490Z,50.52
2019-04-28T04:59:10.501Z,55.08
2019-04-28T05:01:55.825Z,49.55
2019-04-28T05:04:50.529Z,50.98
2019-04-28T05:07:25.145Z,44.77
2019-04-28T05:10:03.225Z,50.30
2019-04-28T05:12:40.433Z,50.67
2019-04-28T05:15:20.201Z,48.90
2019-04-28T05:18:04.393Z,54.70
2019-04-28T05:20:45.029Z,58.10
2019-04-28T05:23:22.673Z,58.15
2019-04-28T05:26:01.500Z,61.95
2019-04-28T05:28:44.055Z,60.48
2019-04-28T05:31:22.945Z,61.88
2019-04-28T05:33:54.067Z,62.83
2019-04-28T05:36:41.170Z,63.10
2019-04-28T05:39:11.259Z,61.05
2019-04-28T05:41:50.467Z,60.08
2019-04-28T05:44:31.813Z,61.13
2019-04-28T05:47:09.789Z,62.50
2019-04-28T05:49:51.461Z,64.45
2019-04-28T05:52:37.284Z,61.53
2019-04-28T05:55:15.281Z,64.95
2019-04-28T05:58:01.435Z,63.08
2019-04-28T06:00:41.774Z,65.67
2019-04-28T06:03:19.865Z,65.12
2019-04-28T06:05:59.997Z,81.10
2019-04-28T06:08:59.917Z,68.95
2019-04-28T06:11:42.015Z,66.10
2019-04-28T06:14:19.872Z,75.47
2019-04-28T06:16:55.549Z,74.75
2019-04-28T06:19:33.319Z,67.12
2019-04-28T06:22:11.519Z,63.28
2019-04-28T06:24:49.811Z,64.55
2019-04-28T06:27:25.343Z,69.80
2019-04-28T06:30:03.990Z,71.82
2019-04-28T06:32:39.671Z,68.65
2019-04-28T06:35:16.563Z,67.37
2019-04-28T06:40:35.278Z,68.97
2019-04-28T06:43:16.525Z,69.53
2019-04-28T06:45:54.332Z,67.92
2019-04-28T06:48:31.258Z,68.07
2019-04-28T06:51:11.891Z,74.97
2019-04-28T06:53:56.207Z,67.08
2019-04-28T06:56:33.857Z,67.60
2019-04-28T06:59:10.518Z,65.22
2019-04-28T07:01:53.331Z,66.28
2019-04-28T07:04:31.648Z,64.27
2019-04-28T07:07:08.887Z,59.05
2019-04-28T07:09:48.095Z,64.55
2019-04-28T07:12:24.041Z,67.75
2019-04-28T07:15:08.433Z,73.20
2019-04-28T07:17:44.453Z,70.90
2019-04-28T07:20:31.751Z,75.57
2019-04-28T07:25:46.613Z,79.53
2019-04-28T07:28:25.473Z,85.92
2019-04-28T07:31:00.400Z,83.45
2019-04-28T07:33:40.673Z,86.28
2019-04-28T07:36:16.316Z,91.15
2019-04-28T07:41:50.439Z,115.47
2019-04-28T07:44:29.357Z,98.20
2019-04-28T07:47:07.752Z,90.72
2019-04-28T07:49:45.170Z,96.30
2019-04-28T07:52:24.639Z,95.57
2019-04-28T07:55:05.660Z,104.15
2019-04-28T07:57:42.847Z,109.52
2019-04-28T08:00:20.965Z,102.07
2019-04-28T08:03:00.714Z,94.50
2019-04-28T08:05:36.564Z,96.80
2019-04-28T08:08:12.106Z,101.27
2019-04-28T08:10:52.241Z,100.92
2019-04-28T08:13:28.806Z,101.80
2019-04-28T08:16:06.120Z,100.80
2019-04-28T08:18:43.137Z,100.20
2019-04-28T08:21:20.512Z,104.53
2019-04-28T08:23:56.210Z,107.35
2019-04-28T08:26:36.157Z,111.60
2019-04-28T08:31:52.106Z,256.43
2019-04-28T08:34:29.008Z,152.72
2019-04-28T08:37:06.678Z,128.87
2019-04-28T08:39:44.632Z,117.35
2019-04-28T08:42:29.901Z,111.25
2019-04-28T08:45:10.814Z,126.10
2019-04-28T08:47:50.167Z,122.35
2019-04-28T08:50:29.764Z,117.13
2019-04-28T08:53:13.970Z,119.82
2019-04-28T08:55:50.485Z,133.72
2019-04-28T08:58:42.006Z,120.67
2019-04-28T09:01:19.692Z,124.90
2019-04-28T09:03:55.996Z,120.92
2019-04-28T09:06:31.559Z,122.53
2019-04-28T09:09:08.599Z,119.65
2019-04-28T09:11:45.676Z,112.45
2019-04-28T09:14:22.717Z,114.67
2019-04-28T09:17:01.752Z,117.13
2019-04-28T09:19:37.186Z,117.17
2019-04-28T09:22:14.266Z,130.47
2019-04-28T09:27:28.628Z,132.40
2019-04-28T09:30:05.217Z,131.82
2019-04-28T09:32:40.965Z,137.47
2019-04-28T09:35:18.791Z,138.55
2019-04-28T09:37:57.972Z,131.37
2019-04-28T09:40:35.143Z,143.52
2019-04-28T09:43:14.536Z,139.12
2019-04-28T09:45:51.512Z,124.02
2019-04-28T09:51:04.649Z,115.57
2019-04-28T09:53:41.540Z,118.53
2019-04-28T09:56:18.398Z,116.42
2019-04-28T09:58:59.042Z,112.55
2019-04-28T10:01:36.656Z,114.45
2019-04-28T10:04:13.766Z,108.97
2019-04-28T10:06:51.549Z,118.45
2019-04-28T10:09:27.189Z,102.75
2019-04-28T10:12:05.197Z,95.47
2019-04-28T10:14:44.669Z,97.05
2019-04-28T10:17:21.574Z,98.05
2019-04-28T10:22:32.960Z,104.12
2019-04-28T10:25:11.163Z,104.92
2019-04-28T10:27:48.362Z,102.87
2019-04-28T10:30:25.431Z,102.75
2019-04-28T10:33:02.852Z,92.82
2019-04-28T10:35:38.415Z,93.37
2019-04-28T10:38:14.559Z,103.40
2019-04-28T10:41:02.113Z,97.75
2019-04-28T10:43:39.530Z,118.13
2019-04-28T10:46:16.578Z,102.58
2019-04-28T10:48:52.428Z,105.72
2019-04-28T10:51:28.739Z,92.60
2019-04-28T10:54:04.553Z,94.28
2019-04-28T10:56:40.239Z,96.55
2019-04-28T10:59:17.841Z,95.65
2019-04-28T11:01:54.262Z,101.50
2019-04-28T11:04:43.378Z,90.42
2019-04-28T11:07:19.986Z,94.17
2019-04-28T11:10:05.119Z,94.40
2019-04-28T11:12:42.456Z,98.22
2019-04-28T11:15:22.534Z,104.67
2019-04-28T11:17:59.646Z,107.67
2019-04-28T11:20:37.091Z,110.80
2019-04-28T11:23:14.156Z,104.97
2019-04-28T11:25:53.653Z,112.60
2019-04-28T11:28:47.869Z,117.90
2019-04-28T11:31:31.611Z,114.57
2019-04-28T11:34:21.501Z,115.50
2019-04-28T11:37:01.888Z,121.47
2019-04-28T11:39:40.192Z,111.85
2019-04-28T11:42:18.396Z,114.80
2019-04-28T11:44:55.291Z,121.25
2019-04-28T11:50:09.526Z,120.62
2019-04-28T11:52:54.441Z,126.15
2019-04-28T11:55:29.929Z,128.80
2019-04-28T11:58:12.105Z,131.85
2019-04-28T12:00:47.860Z,136.07
2019-04-28T12:03:24.965Z,146.05
2019-04-28T12:06:09.256Z,134.95
2019-04-28T12:08:50.678Z,137.50
2019-04-28T12:11:27.227Z,150.07
2019-04-28T12:17:07.371Z,157.65
2019-04-28T12:19:50.933Z,152.17
2019-04-28T12:22:25.793Z,147.00
2019-04-28T12:27:41.386Z,146.15
2019-04-28T12:30:17.648Z,149.95
2019-04-28T12:32:55.643Z,153.90
2019-04-28T12:35:46.800Z,151.40
2019-04-28T12:38:11.556Z,153.60
2019-04-28T12:40:56.363Z,155.20
2019-04-28T12:43:32.914Z,156.15
2019-04-28T12:46:10.701Z,147.20
2019-04-28T12:48:46.333Z,150.20
2019-04-28T12:51:29.887Z,153.27
2019-04-28T12:54:10.889Z,158.72
2019-04-28T12:56:53.813Z,170.22
2019-04-28T12:59:42.254Z,166.53
2019-04-28T13:02:32.589Z,161.70
2019-04-28T13:05:17.482Z,168.35
2019-04-28T13:08:05.921Z,162.65
2019-04-28T13:10:42.375Z,161.22
2019-04-28T13:13:26.525Z,164.97
2019-04-28T13:16:13.754Z,181.22
2019-04-28T13:18:58.607Z,168.87
2019-04-28T13:21:37.248Z,171.55
2019-04-28T13:24:13.918Z,159.82
2019-04-28T13:26:52.316Z,176.27
2019-04-28T13:32:14.133Z,181.67
2019-04-28T13:34:55.439Z,186.10
2019-04-28T13:40:12.560Z,219.80
2019-04-28T13:42:54.553Z,228.20
2019-04-28T13:45:35.755Z,219.87
2019-04-28T13:48:18.667Z,236.87
2019-04-28T13:53:41.481Z,231.85
2019-04-28T13:59:25.626Z,219.10
2019-04-28T14:02:22.188Z,178.78
2019-04-28T14:05:19.061Z,185.97
2019-04-28T14:07:57.040Z,176.00
2019-04-28T14:13:14.625Z,197.95
2019-04-28T14:15:54.050Z,212.05
2019-04-28T14:18:34.451Z,226.42
2019-04-28T14:21:16.540Z,210.10
2019-04-28T14:26:40.499Z,216.85
2019-04-28T14:32:00.868Z,228.50
2019-04-28T14:34:39.146Z,219.87
2019-04-28T14:40:22.108Z,225.05
2019-04-28T14:45:37.884Z,215.97
2019-04-28T14:48:15.391Z,212.87
2019-04-28T14:50:53.358Z,221.87
2019-04-28T14:53:29.629Z,223.28
2019-04-28T14:58:44.860Z,232.30
2019-04-28T15:01:37.220Z,218.77
2019-04-28T15:07:04.304Z,229.18
2019-04-28T15:10:02.597Z,228.88
2019-04-28T15:12:43.123Z,213.65
2019-04-28T15:15:28.766Z,209.25
2019-04-28T15:18:08.777Z,230.87
2019-04-28T15:20:51.825Z,246.80
2019-04-28T15:23:30.840Z,235.65
2019-04-28T15:26:12.596Z,232.85
2019-04-28T15:28:49.613Z,232.77
2019-04-28T15:31:28.189Z,226.52
2019-04-28T15:34:08.993Z,229.28
2019-04-28T15:36:49.716Z,232.27
2019-04-28T15:39:26.283Z,230.25
2019-04-28T15:44:57.548Z,248.95
2019-04-28T15:47:45.891Z,246.15
2019-04-28T15:50:30.400Z,234.62
2019-04-28T15:53:17.860Z,235.35
2019-04-28T15:56:07.231Z,237.02
2019-04-28T15:58:52.196Z,222.42
2019-04-28T16:01:31.402Z,229.15
2019-04-28T16:04:10.917Z,255.10
2019-04-28T16:06:51.944Z,244.95
2019-04-28T16:09:33.614Z,234.25
2019-04-28T16:12:13.299Z,246.45
2019-04-28T16:14:51.306Z,229.87
2019-04-28T16:17:26.983Z,237.63
2019-04-28T16:20:07.411Z,230.32
2019-04-28T16:22:43.593Z,226.30
2019-04-28T16:25:21.195Z,229.87
2019-04-28T16:27:57.824Z,220.82
2019-04-28T16:30:35.974Z,222.98
2019-04-28T16:33:13.358Z,232.67
2019-04-28T16:35:48.602Z,231.30
2019-04-28T16:38:29.462Z,243.50
2019-04-28T16:41:06.758Z,239.50
2019-04-28T16:43:44.110Z,239.12
2019-04-28T16:46:22.096Z,237.02
2019-04-28T16:48:59.280Z,235.50
2019-04-28T16:51:38.829Z,238.45
2019-04-28T16:54:20.416Z,242.13
2019-04-28T16:57:02.642Z,239.00
2019-04-28T16:59:56.034Z,250.57
2019-04-28T17:02:40.890Z,245.00
2019-04-28T17:05:17.548Z,243.57
2019-04-28T17:10:49.735Z,230.90
2019-04-28T17:13:27.799Z,236.75
2019-04-28T17:16:05.235Z,234.83
2019-04-28T17:18:42.876Z,248.43
2019-04-28T17:21:22.477Z,236.85
2019-04-28T17:23:59.035Z,241.27
2019-04-28T17:26:36.539Z,246.57
2019-04-28T17:29:16.852Z,249.58
2019-04-28T17:32:00.460Z,248.72
2019-04-28T17:34:36.319Z,240.77
2019-04-28T17:37:13.613Z,254.68
2019-04-28T17:42:29.941Z,246.40
2019-04-28T17:45:10.175Z,261.07
2019-04-28T17:47:45.943Z,246.10
2019-04-28T17:50:22.633Z,268.05
2019-04-28T17:52:58.139Z,256.98
2019-04-28T17:55:33.949Z,259.05
2019-04-28T17:58:11.508Z,260.63
2019-04-28T18:00:54.232Z,259.15
2019-04-28T18:03:41.519Z,253.73
2019-04-28T18:06:27.788Z,237.65
2019-04-28T18:09:06.486Z,255.37
2019-04-28T18:11:45.529Z,242.80
2019-04-28T18:14:22.147Z,264.55
2019-04-28T18:17:01.435Z,263.45
2019-04-28T18:19:37.382Z,253.95
2019-04-28T18:22:14.851Z,250.87
2019-04-28T18:24:50.572Z,243.88
2019-04-28T18:27:27.706Z,243.00
2019-04-28T18:30:04.854Z,236.55
2019-04-28T18:32:45.249Z,239.80
2019-04-28T18:35:27.041Z,247.85
2019-04-28T18:38:11.117Z,254.80
2019-04-28T18:41:06.348Z,275.15
2019-04-28T18:43:59.075Z,281.17
2019-04-28T18:46:36.181Z,294.23
2019-04-28T18:49:11.771Z,293.48
2019-04-28T18:51:49.365Z,299.92
2019-04-28T18:54:24.872Z,300.77
2019-04-28T18:57:01.681Z,303.23
2019-04-28T18:59:46.819Z,290.18
2019-04-28T19:02:28.441Z,303.52
2019-04-28T19:05:05.344Z,302.22
2019-04-28T19:07:53.253Z,287.90
2019-04-28T19:13:12.846Z,281.80
2019-04-28T19:16:07.766Z,292.02
2019-04-28T19:18:44.499Z,268.45
2019-04-28T19:21:21.976Z,267.70
2019-04-28T19:23:59.004Z,274.27
2019-04-28T19:26:36.114Z,264.45
2019-04-28T19:29:13.167Z,278.10
2019-04-28T19:31:51.338Z,276.80
2019-04-28T19:34:29.259Z,294.57
2019-04-28T19:37:04.965Z,285.48
2019-04-28T19:39:42.009Z,290.30
2019-04-28T19:42:19.887Z,279.25
2019-04-28T19:44:57.823Z,298.25
2019-04-28T19:47:35.084Z,271.85
2019-04-28T19:50:13.213Z,286.85
2019-04-28T19:52:48.629Z,303.15
2019-04-28T19:55:25.400Z,303.42
2019-04-28T19:58:04.901Z,307.90
2019-04-28T20:00:44.796Z,284.32
2019-04-28T20:03:21.265Z,300.73
2019-04-28T20:05:57.027Z,295.80
2019-04-28T20:08:33.991Z,288.42
2019-04-28T20:13:44.933Z,292.10
2019-04-28T20:16:22.381Z,283.75
2019-04-28T20:21:34.294Z,293.75
2019-04-28T20:24:09.918Z,283.95
2019-04-28T20:26:45.754Z,287.35
2019-04-28T20:29:23.304Z,291.98
2019-04-28T20:32:00.649Z,297.93
2019-04-28T20:34:37.663Z,291.12
2019-04-28T20:39:50.567Z,297.25
2019-04-28T20:42:39.822Z,303.02
2019-04-28T20:45:16.400Z,299.83
2019-04-28T20:50:26.349Z,314.60
2019-04-28T20:53:02.202Z,303.98
2019-04-28T20:55:37.764Z,315.87
2019-04-28T20:58:13.514Z,307.98
2019-04-28T21:00:49.072Z,327.95
2019-04-28T21:03:24.911Z,335.45
2019-04-28T21:06:00.451Z,335.95
2019-04-28T21:08:36.140Z,322.55
2019-04-28T21:11:11.651Z,342.35
2019-04-28T21:13:47.393Z,328.85
2019-04-28T21:16:23.858Z,332.23
2019-04-28T21:19:00.194Z,360.45
2019-04-28T21:21:35.840Z,349.75
2019-04-28T21:24:11.619Z,348.38
2019-04-28T21:26:47.091Z,367.68
2019-04-28T21:29:22.949Z,361.40
2019-04-28T21:31:58.474Z,357.32
2019-04-28T21:34:34.245Z,386.30
2019-04-28T21:37:10.147Z,393.80
2019-04-28T21:39:50.769Z,376.88
2019-04-28T21:42:27.415Z,365.02
2019-04-28T21:45:10.245Z,366.35
2019-04-28T21:47:47.197Z,376.48
2019-04-28T21:50:24.365Z,360.73
2019-04-28T21:53:00.026Z,381.02
2019-04-28T21:55:37.228Z,355.83
2019-04-28T21:58:16.770Z,382.65
2019-04-28T22:00:59.401Z,394.20
2019-04-28T22:03:40.650Z,378.73
2019-04-28T22:06:16.391Z,382.70
2019-04-28T22:08:51.976Z,364.72
2019-04-28T22:11:30.224Z,387.02
2019-04-28T22:14:06.045Z,368.60
2019-04-28T22:16:42.578Z,368.10
2019-04-28T22:19:18.783Z,369.65
2019-04-28T22:21:54.939Z,357.45
2019-04-28T22:24:32.841Z,376.00
2019-04-28T22:27:08.891Z,372.30
2019-04-28T22:29:45.830Z,366.00
2019-04-28T22:34:58.350Z,368.27
2019-04-28T22:40:08.889Z,363.23
2019-04-28T22:42:44.746Z,379.60
2019-04-28T22:45:22.166Z,349.62
2019-04-28T22:47:57.960Z,360.50
2019-04-28T22:50:40.949Z,350.35
2019-04-28T22:53:19.631Z,380.35
2019-04-28T22:55:59.203Z,332.37
2019-04-28T22:58:55.622Z,352.98
2019-04-28T23:01:36.312Z,363.37
2019-04-28T23:04:15.201Z,361.45
2019-04-28T23:06:50.827Z,347.17
2019-04-28T23:09:26.656Z,359.00
2019-04-28T23:12:03.139Z,346.65
2019-04-28T23:14:39.022Z,347.48
2019-04-28T23:17:15.959Z,353.73
2019-04-28T23:22:46.324Z,320.48
2019-04-28T23:25:11.084Z,334.95
2019-04-28T23:27:51.019Z,359.92
2019-04-28T23:30:46.649Z,347.37
2019-04-28T23:33:26.073Z,308.77
2019-04-28T23:36:02.309Z,333.82
2019-04-28T23:38:42.567Z,317.60
2019-04-28T23:41:24.189Z,334.90
2019-04-28T23:44:01.197Z,329.82
2019-04-28T23:49:31.030Z,322.37
2019-04-28T23:52:09.231Z,348.50
2019-04-28T23:54:45.864Z,333.60
2019-04-28T23:57:21.688Z,333.43
2019-04-28T23:59:57.390Z,337.88
